Time;durP1;ratioP1;P1;durP2;ratioP2;P2;SDS_P1;SDS_P2;PMS_P1;PMS_P2;Temp;Humidity;BMP_temperature;BMP_pressure;BME280_temperature;BME280_humidity;BME280_pressure;Samples;Min_cycle;Max_cycle;Signal;HPM_P1;HPM_P2
2022/01/09 00:00:18;;;;;;;3.17;1.55;;;4.40;99.90;;;2.60;100.00;98444.91;2568988;30;137326;-39
2022/01/09 00:02:48;;;;;;;3.95;1.58;;;4.40;99.90;;;2.61;100.00;98437.69;2568202;30;137711;-39
2022/01/09 00:05:16;;;;;;;;;;;4.40;99.90;;;2.58;100.00;98433.53;2568735;30;137874;-40
2022/01/09 00:07:44;;;;;;;2.63;1.38;;;4.40;99.90;;;2.64;100.00;98438.03;2567778;30;137937;-40
2022/01/09 00:10:12;;;;;;;4.43;1.40;;;4.40;99.90;;;2.59;100.00;98417.19;2567331;30;138539;-39
2022/01/09 00:12:40;;;;;;;3.42;1.40;;;4.40;99.90;;;2.58;100.00;98423.63;2568280;30;136929;-40
2022/01/09 00:15:09;;;;;;;4.53;1.67;;;4.40;99.90;;;2.61;100.00;98422.34;2568408;30;138243;-39
2022/01/09 00:17:37;;;;;;;3.90;1.48;;;4.40;99.90;;;2.58;100.00;98420.09;2568979;30;137453;-39
2022/01/09 00:20:08;;;;;;;4.32;1.92;;;4.40;99.90;;;2.56;100.00;98424.88;2565591;30;139025;-39
2022/01/09 00:22:41;;;;;;;2.75;1.52;;;4.30;99.90;;;2.53;100.00;98419.91;2567717;30;136677;-39
2022/01/09 00:25:11;;;;;;;2.40;1.20;;;4.30;99.90;;;2.52;100.00;98420.97;2569004;30;138944;-40
2022/01/09 00:27:39;;;;;;;2.83;1.30;;;4.30;99.90;;;2.54;100.00;98421.56;2568387;30;137517;-39
2022/01/09 00:30:10;;;;;;;2.72;1.42;;;4.30;99.90;;;2.60;100.00;98418.00;2564899;30;138455;-40
2022/01/09 00:32:38;;;;;;;2.85;1.50;;;4.30;99.90;;;2.58;100.00;98412.00;2567012;30;137457;-39
2022/01/09 00:35:07;;;;;;;3.50;1.60;;;4.40;99.90;;;2.64;100.00;98411.13;2568216;30;138789;-40
2022/01/09 00:37:36;;;;;;;2.58;1.40;;;4.40;99.90;;;2.67;100.00;98412.56;2568421;30;137474;-40
2022/01/09 00:40:07;;;;;;;3.75;1.63;;;4.40;99.90;;;2.61;100.00;98403.50;2568353;30;139111;-37
2022/01/09 00:42:35;;;;;;;2.35;1.48;;;4.40;99.90;;;2.64;100.00;98399.53;2568413;30;137573;-38
2022/01/09 00:45:04;;;;;;;3.95;1.42;;;4.40;99.90;;;2.66;100.00;98400.97;2568533;30;137474;-37
2022/01/09 00:47:31;;;;;;;3.35;1.40;;;4.40;99.90;;;2.63;100.00;98404.09;2569602;30;137434;-38
2022/01/09 00:50:00;;;;;;;3.63;1.48;;;4.40;99.90;;;2.67;100.00;98409.88;2567952;30;138252;-38
2022/01/09 00:52:27;;;;;;;2.45;1.27;;;4.40;99.90;;;2.65;100.00;98407.41;2568300;30;137088;-38
2022/01/09 00:54:55;;;;;;;3.17;1.40;;;4.40;99.90;;;2.69;100.00;98402.41;2567427;30;137261;-37
2022/01/09 00:57:23;;;;;;;2.20;1.10;;;4.50;99.90;;;2.69;100.00;98395.16;2567943;30;136665;-37
2022/01/09 00:59:51;;;;;;;3.35;1.50;;;4.50;99.90;;;2.70;100.00;98399.50;2567603;30;137372;-37
2022/01/09 01:02:18;;;;;;;;;;;4.40;99.90;;;2.71;100.00;98400.31;2568754;30;136782;-38
2022/01/09 01:04:48;;;;;;;2.28;1.20;;;4.50;99.90;;;2.73;100.00;98407.13;2568418;30;138264;-37
2022/01/09 01:07:16;;;;;;;2.88;1.17;;;4.50;99.90;;;2.75;100.00;98400.69;2567814;30;137367;-38
2022/01/09 01:09:43;;;;;;;2.63;1.45;;;4.50;99.90;;;2.70;100.00;98404.88;2564175;30;137426;-37
2022/01/09 01:12:11;;;;;;;2.17;1.30;;;4.50;99.90;;;2.76;100.00;98402.34;2568305;30;137647;-38
2022/01/09 01:14:39;;;;;;;2.15;1.40;;;4.50;99.90;;;2.69;100.00;98400.53;2566576;30;138439;-37
2022/01/09 01:17:10;;;;;;;3.47;1.20;;;4.50;99.90;;;2.71;100.00;98401.13;2568648;30;137263;-38
2022/01/09 01:19:38;;;;;;;2.55;1.30;;;4.50;99.90;;;2.78;100.00;98405.63;2566519;30;138256;-38
2022/01/09 01:22:26;;;;;;;2.25;1.27;;;4.50;99.90;;;2.76;100.00;98405.03;2567971;30;137040;-37
2022/01/09 01:24:56;;;;;;;3.65;1.27;;;4.50;99.90;;;2.76;100.00;98405.03;2568729;30;137347;-37
2022/01/09 01:27:24;;;;;;;3.45;1.13;;;4.50;99.90;;;2.72;100.00;98408.19;2568104;30;137085;-37
2022/01/09 01:29:52;;;;;;;1.92;1.10;;;4.50;99.90;;;2.78;100.00;98416.41;2564263;30;138274;-37
2022/01/09 01:32:23;;;;;;;2.28;1.10;;;4.50;99.90;;;2.79;100.00;98412.66;2567117;30;137378;-38
2022/01/09 01:34:51;;;;;;;1.50;1.00;;;4.50;99.90;;;2.77;100.00;98422.84;2568577;30;138428;-38
2022/01/09 01:37:19;;;;;;;2.53;1.30;;;4.50;99.90;;;2.77;100.00;98430.91;2567722;30;136861;-37
2022/01/09 01:39:47;;;;;;;2.85;1.33;;;4.50;99.90;;;2.77;100.00;98428.22;2567650;30;138340;-38
2022/01/09 01:42:15;;;;;;;4.03;1.30;;;4.50;99.90;;;2.81;100.00;98432.13;2566720;30;137441;-38
2022/01/09 01:44:49;;;;;;;3.47;1.23;;;4.50;99.90;;;2.86;100.00;98443.06;2566649;30;138046;-38
2022/01/09 01:47:21;;;;;;;1.80;0.98;;;4.60;99.90;;;2.90;100.00;98446.94;2567683;30;136680;-38
2022/01/09 01:49:49;;;;;;;2.10;1.02;;;4.60;99.90;;;2.90;100.00;98457.72;2567942;30;138331;-38
2022/01/09 01:52:26;;;;;;;2.22;0.90;;;4.60;99.90;;;2.91;100.00;98467.44;2568060;30;137752;-37
2022/01/09 01:54:54;;;;;;;2.05;1.05;;;4.60;99.90;;;2.95;100.00;98460.59;2569119;30;137302;-37
2022/01/09 01:57:22;;;;;;;1.63;0.90;;;4.70;99.90;;;2.93;100.00;98454.63;2567795;30;138162;-37
2022/01/09 01:59:52;;;;;;;2.08;1.08;;;4.70;99.90;;;2.99;100.00;98490.59;2567951;30;138491;-37
2022/01/09 02:02:20;;;;;;;2.08;1.20;;;4.70;99.90;;;2.95;100.00;98476.78;2564353;30;137324;-38
2022/01/09 02:04:48;;;;;;;3.25;1.50;;;4.70;99.90;;;2.99;100.00;98490.59;2567373;30;137077;-38
2022/01/09 02:07:15;;;;;;;4.05;1.77;;;4.70;99.90;;;3.04;100.00;98503.41;2568698;30;137349;-38
2022/01/09 02:09:44;;;;;;;2.60;1.45;;;4.70;99.90;;;3.05;100.00;98507.75;2566071;30;138449;-38
2022/01/09 02:12:12;;;;;;;2.92;1.38;;;4.80;99.90;;;3.11;100.00;98513.09;2568621;30;138758;-37
2022/01/09 02:14:44;;;;;;;3.17;1.50;;;4.80;99.90;;;3.11;100.00;98514.97;2567077;30;138492;-38
2022/01/09 02:17:20;;;;;;;2.65;1.63;;;4.80;99.90;;;3.15;100.00;98526.94;2568697;30;137051;-37
2022/01/09 02:19:55;;;;;;;2.28;1.30;;;4.80;99.90;;;3.25;100.00;98542.63;2567623;30;137288;-38
2022/01/09 02:22:29;;;;;;;2.40;1.30;;;4.90;99.90;;;3.26;100.00;98547.81;2567989;30;137351;-37
2022/01/09 02:24:58;;;;;;;3.42;1.20;;;5.00;99.90;;;3.31;100.00;98556.03;2568886;30;138355;-38
2022/01/09 02:27:25;;;;;;;3.45;1.13;;;5.00;99.90;;;3.29;100.00;98549.22;2567148;30;136575;-38
2022/01/09 02:29:53;;;;;;;2.63;1.35;;;5.00;99.90;;;3.30;100.00;98572.41;2568421;30;138407;-38
2022/01/09 02:32:20;;;;;;;3.60;1.40;;;5.00;99.90;;;3.37;100.00;98586.69;2567720;30;137315;-37
2022/01/09 02:34:50;;;;;;;2.95;1.60;;;5.10;99.90;;;3.38;100.00;98596.44;2566284;30;139124;-37
2022/01/09 02:37:17;;;;;;;2.65;1.35;;;5.10;99.90;;;3.41;100.00;98609.47;2568574;30;136860;-37
2022/01/09 02:39:45;;;;;;;2.78;1.27;;;5.10;99.90;;;3.42;100.00;98600.34;2568251;30;137336;-37
2022/01/09 02:42:29;;;;;;;2.38;1.10;;;5.10;99.90;;;3.39;100.00;98613.41;2568234;30;136712;-37
2022/01/09 02:44:57;;;;;;;3.53;1.02;;;5.10;99.90;;;3.38;100.00;98625.25;2567302;30;138989;-37
2022/01/09 02:47:29;;;;;;;3.03;0.90;;;5.10;99.90;;;3.35;100.00;98644.56;2569149;30;137772;-37
2022/01/09 02:50:03;;;;;;;3.92;1.10;;;5.10;99.90;;;3.38;100.00;98646.81;2566039;30;138553;-37
2022/01/09 02:52:34;;;;;;;2.83;0.80;;;5.10;99.90;;;3.36;100.00;98665.91;2568526;30;137404;-37
2022/01/09 02:55:14;;;;;;;5.32;1.00;;;5.10;99.90;;;3.31;100.00;98666.56;2565862;30;139448;-37
2022/01/09 02:57:47;;;;;;;3.10;0.73;;;5.00;99.90;;;3.32;100.00;98667.41;2568708;30;137371;-37
2022/01/09 03:00:24;;;;;;;5.47;1.15;;;5.00;99.90;;;3.29;100.00;98675.91;2567866;30;138303;-37
2022/01/09 03:02:53;;;;;;;4.38;1.00;;;5.00;99.90;;;3.32;100.00;98683.56;2569188;30;136937;-37
2022/01/09 03:05:22;;;;;;;6.13;1.02;;;5.00;99.90;;;3.33;100.00;98687.06;2568211;30;139137;-37
2022/01/09 03:07:51;;;;;;;5.03;1.30;;;5.00;99.90;;;3.33;100.00;98696.00;2568520;30;137220;-37
2022/01/09 03:10:20;;;;;;;9.60;1.65;;;5.00;99.90;;;3.39;100.00;98702.38;2568272;30;138167;-37
2022/01/09 03:12:50;;;;;;;11.27;1.75;;;5.10;99.90;;;3.39;100.00;98705.91;2568364;30;138191;-37
2022/01/09 03:15:18;;;;;;;8.18;1.38;;;5.10;99.90;;;3.40;100.00;98709.41;2567872;30;138195;-37
2022/01/09 03:17:45;;;;;;;11.07;1.70;;;5.10;99.90;;;3.41;100.00;98722.69;2566708;30;138310;-37
2022/01/09 03:20:17;;;;;;;;;;;5.10;99.90;;;3.43;100.00;98714.38;2567715;30;138632;-37
2022/01/09 03:22:45;;;;;;;12.60;1.52;;;5.10;99.90;;;3.47;100.00;98720.16;2567987;30;137064;-37
2022/01/09 03:25:13;;;;;;;10.85;2.00;;;5.10;99.90;;;3.51;100.00;98724.91;2567582;30;139050;-37
2022/01/09 03:27:45;;;;;;;14.75;2.42;;;5.20;99.90;;;3.56;100.00;98730.47;2568181;30;137483;-38
2022/01/09 03:30:13;;;;;;;13.75;2.30;;;5.20;99.90;;;3.63;100.00;98738.53;2568463;30;138156;-37
2022/01/09 03:32:41;;;;;;;;;;;5.30;99.90;;;3.66;100.00;98756.13;2568738;30;136760;-37
2022/01/09 03:35:13;;;;;;;13.15;2.08;;;5.30;99.90;;;3.66;100.00;98769.59;2568927;30;138593;-37
2022/01/09 03:37:44;;;;;;;18.27;2.15;;;5.30;99.90;;;3.72;100.00;98774.16;2568240;30;137653;-37
2022/01/09 03:40:19;;;;;;;15.55;2.33;;;5.40;99.90;;;3.76;100.00;98774.53;2568153;30;139025;-37
2022/01/09 03:42:54;;;;;;;20.88;2.47;;;5.40;99.90;;;3.77;100.00;98778.88;2568497;30;136558;-37
2022/01/09 03:45:25;;;;;;;16.75;2.90;;;5.40;99.90;;;3.79;100.00;98803.75;2567108;30;137733;-37
2022/01/09 03:47:55;;;;;;;15.48;2.70;;;5.50;99.90;;;3.78;100.00;98802.94;2568331;30;137393;-37
2022/01/09 03:50:23;;;;;;;22.15;3.10;;;5.50;99.90;;;3.82;100.00;98809.56;2567316;30;138443;-37
2022/01/09 03:52:52;;;;;;;11.07;1.90;;;5.50;99.90;;;3.86;100.00;98820.75;2567850;30;138435;-37
2022/01/09 03:55:22;;;;;;;14.38;2.80;;;5.50;99.90;;;3.85;100.00;98819.91;2569154;30;137325;-37
2022/01/09 03:57:50;;;;;;;17.52;2.58;;;5.50;99.90;;;3.83;100.00;98827.41;2568373;30;137412;-37
2022/01/09 04:00:22;;;;;;;17.02;2.35;;;5.50;99.90;;;3.84;100.00;98834.44;2568540;30;139368;-37
2022/01/09 04:02:51;;;;;;;9.70;1.95;;;5.50;99.90;;;3.82;100.00;98843.78;2565492;30;138131;-37
2022/01/09 04:05:19;;;;;;;15.10;1.95;;;5.50;99.90;;;3.75;100.00;98846.53;2568536;30;138361;-37
2022/01/09 04:07:47;;;;;;;9.75;1.58;;;5.50;99.90;;;3.73;100.00;98854.84;2566404;30;136799;-37
2022/01/09 04:10:22;;;;;;;17.25;2.30;;;5.50;99.90;;;3.78;100.00;98865.00;2568347;30;138973;-37
2022/01/09 04:12:57;;;;;;;15.63;2.80;;;5.50;99.90;;;3.85;100.00;98871.16;2565826;30;137475;-37
2022/01/09 04:15:28;;;;;;;14.82;2.75;;;5.50;99.90;;;3.87;100.00;98879.06;2569051;30;138767;-37
2022/01/09 04:17:57;;;;;;;18.17;3.03;;;5.50;99.90;;;3.84;100.00;98888.41;2565616;30;137453;-37
2022/01/09 04:20:29;;;;;;;14.85;3.33;;;5.60;99.90;;;3.81;100.00;98894.22;2568407;30;138218;-37
2022/01/09 04:22:58;;;;;;;17.58;2.58;;;5.50;99.90;;;3.86;100.00;98897.09;2567259;30;137478;-37
2022/01/09 04:25:27;;;;;;;12.68;2.72;;;5.60;99.90;;;3.85;100.00;98900.03;2568692;30;139130;-37
2022/01/09 04:27:54;;;;;;;17.52;3.72;;;5.60;99.90;;;3.86;100.00;98907.91;2568394;30;137492;-38
2022/01/09 04:30:22;;;;;;;17.23;3.25;;;5.60;99.90;;;3.93;100.00;98920.53;2569050;30;138246;-36
2022/01/09 04:32:49;;;;;;;17.17;3.45;;;5.60;99.90;;;3.87;100.00;98917.66;2569261;30;137522;-38
2022/01/09 04:35:17;;;;;;;17.15;3.55;;;5.60;99.90;;;3.89;100.00;98936.34;2568795;30;139046;-37
2022/01/09 04:37:46;;;;;;;19.63;3.47;;;5.60;99.90;;;3.86;100.00;98944.84;2566624;30;137699;-38
2022/01/09 04:40:17;;;;;;;22.38;3.85;;;5.60;99.90;;;3.90;100.00;98948.78;2567290;30;139056;-37
2022/01/09 04:42:48;;;;;;;22.13;3.75;;;5.60;99.90;;;3.91;100.00;98955.00;2568087;30;137466;-38
2022/01/09 04:45:17;;;;;;;21.83;4.20;;;5.60;99.90;;;3.93;100.00;98961.84;2568241;30;138184;-37
2022/01/09 04:47:47;;;;;;;15.48;4.00;;;5.60;99.90;;;3.91;100.00;98968.47;2568151;30;136768;-37
2022/01/09 04:50:26;;;;;;;24.10;4.80;;;5.60;99.90;;;3.96;100.00;98969.50;2567649;30;138702;-38
2022/01/09 04:53:00;;;;;;;20.73;4.38;;;5.60;99.90;;;3.93;100.00;98971.78;2567219;30;137476;-37
2022/01/09 04:55:30;;;;;;;20.45;4.20;;;5.60;99.90;;;3.98;100.00;98974.69;2568264;30;137514;-37
2022/01/09 04:57:58;;;;;;;21.17;4.10;;;5.60;99.90;;;3.97;100.00;98983.81;2567707;30;139249;-37
2022/01/09 05:00:26;;;;;;;17.55;3.45;;;5.60;99.90;;;3.96;100.00;98992.94;2568514;30;137937;-37
2022/01/09 05:02:54;;;;;;;20.25;3.30;;;5.60;99.90;;;3.96;100.00;99003.75;2569228;30;136948;-38
2022/01/09 05:05:22;;;;;;;18.15;3.80;;;5.60;99.90;;;3.95;100.00;99012.88;2568065;30;138151;-37
2022/01/09 05:07:49;;;;;;;21.45;4.25;;;5.60;99.90;;;3.93;100.00;99018.50;2568203;30;136937;-37
2022/01/09 05:10:17;;;;;;;18.20;2.85;;;5.60;99.90;;;3.98;100.00;99039.47;2568203;30;138166;-37
2022/01/09 05:12:45;;;;;;;20.13;3.40;;;5.60;99.90;;;3.93;100.00;99039.25;2568112;30;137704;-38
2022/01/09 05:15:14;;;;;;;15.90;2.47;;;5.60;99.90;;;3.92;100.00;99041.13;2567187;30;138314;-38
2022/01/09 05:17:42;;;;;;;13.98;2.90;;;5.60;99.90;;;3.95;100.00;99056.03;2567135;30;136670;-37
2022/01/09 05:20:10;;;;;;;17.27;2.88;;;5.60;99.90;;;3.95;100.00;99056.03;2568198;30;138022;-37
2022/01/09 05:22:38;;;;;;;11.82;2.70;;;5.70;99.90;;;3.95;100.00;99067.69;2567649;30;137632;-37
2022/01/09 05:25:07;;;;;;;11.57;2.67;;;5.60;99.90;;;3.91;100.00;99081.81;2567900;30;139034;-37
2022/01/09 05:27:36;;;;;;;11.23;2.65;;;5.60;99.90;;;3.91;100.00;99092.59;2567750;30;137297;-37
2022/01/09 05:30:06;;;;;;;14.98;2.97;;;5.60;99.90;;;3.84;100.00;99090.75;2568221;30;137135;-38
2022/01/09 05:32:34;;;;;;;11.50;2.50;;;5.60;99.90;;;3.83;100.00;99097.19;2569190;30;137595;-38
2022/01/09 05:35:02;;;;;;;8.82;2.20;;;5.50;99.90;;;3.81;100.00;99111.91;2568175;30;138475;-37
2022/01/09 05:37:30;;;;;;;17.08;2.72;;;5.50;99.90;;;3.77;100.00;99108.81;2568737;30;137427;-37
2022/01/09 05:39:57;;;;;;;14.30;3.33;;;5.50;99.90;;;3.78;100.00;99120.44;2568850;30;138250;-37
2022/01/09 05:42:25;;;;;;;12.88;2.65;;;5.50;99.90;;;3.74;100.00;99120.03;2569296;30;137444;-38
2022/01/09 05:44:54;;;;;;;18.67;3.35;;;5.50;99.90;;;3.73;100.00;99131.88;2567911;30;139199;-37
2022/01/09 05:47:21;;;;;;;13.63;3.10;;;5.40;99.90;;;3.74;100.00;99131.66;2568100;30;138114;-37
2022/01/09 05:49:49;;;;;;;15.65;2.65;;;5.40;99.90;;;3.74;100.00;99149.72;2565566;30;138295;-37
2022/01/09 05:52:17;;;;;;;14.55;3.05;;;5.40;99.90;;;3.72;100.00;99155.31;2567664;30;138300;-37
2022/01/09 05:54:44;;;;;;;10.48;2.63;;;5.40;99.90;;;3.71;100.00;99158.19;2567706;30;138267;-38
2022/01/09 05:57:12;;;;;;;15.85;2.65;;;5.40;99.90;;;3.70;100.00;99161.94;2568535;30;137515;-37
2022/01/09 05:59:39;;;;;;;17.23;4.05;;;5.40;99.90;;;3.69;100.00;99174.59;2568224;30;137007;-37
2022/01/09 06:02:08;;;;;;;16.40;2.60;;;5.40;99.90;;;3.64;100.00;99174.41;2568721;30;136672;-38
2022/01/09 06:04:36;;;;;;;14.68;2.42;;;5.40;99.90;;;3.68;100.00;99185.59;2566373;30;137546;-37
2022/01/09 06:07:04;;;;;;;9.52;2.10;;;5.40;99.90;;;3.66;100.00;99177.72;2567766;30;137528;-37
2022/01/09 06:09:31;;;;;;;17.88;2.53;;;5.40;99.90;;;3.62;100.00;99191.81;2567000;30;137395;-37
2022/01/09 06:11:59;;;;;;;13.82;2.42;;;5.30;99.90;;;3.63;100.00;99198.88;2568401;30;136935;-37
2022/01/09 06:14:26;;;;;;;18.67;2.22;;;5.30;99.90;;;3.62;100.00;99203.44;2564790;30;138171;-37
2022/01/09 06:16:54;;;;;;;10.73;2.08;;;5.30;99.90;;;3.60;100.00;99205.53;2566596;30;137517;-37
2022/01/09 06:19:21;;;;;;;17.13;2.75;;;5.30;99.90;;;3.56;100.00;99210.50;2567549;30;137165;-37
2022/01/09 06:21:48;;;;;;;20.08;2.85;;;5.30;99.90;;;3.60;100.00;99208.22;2566007;30;136687;-37
2022/01/09 06:24:16;;;;;;;11.43;2.35;;;5.30;99.90;;;3.55;100.00;99219.63;2566872;30;139145;-37
2022/01/09 06:26:44;;;;;;;9.63;1.90;;;5.30;99.90;;;3.56;100.00;99218.59;2566983;30;137647;-37
2022/01/09 06:29:12;;;;;;;12.00;2.25;;;5.30;99.90;;;3.53;100.00;99221.69;2568696;30;138013;-37
2022/01/09 06:31:40;;;;;;;15.73;3.15;;;5.30;99.90;;;3.51;100.00;99223.78;2567829;30;137044;-37
2022/01/09 06:34:07;;;;;;;8.38;2.05;;;5.20;99.90;;;3.49;100.00;99230.41;2565454;30;137926;-37
2022/01/09 06:36:35;;;;;;;10.05;1.92;;;5.20;99.90;;;3.47;100.00;99240.56;2568387;30;137394;-37
2022/01/09 06:39:02;;;;;;;14.95;2.30;;;5.20;99.90;;;3.44;100.00;99244.47;2569201;30;138354;-39
2022/01/09 12:41:46;;;;;;;12.65;3.15;;;5.20;99.90;;;4.64;100.00;99763.34;2568157;30;136875;-38
2022/01/09 12:44:13;;;;;;;;;;;6.30;99.90;;;4.64;100.00;99761.50;2568576;30;138185;-37
2022/01/09 12:46:42;;;;;;;9.07;3.00;;;6.30;99.90;;;4.69;100.00;99763.63;2569233;30;137076;-38
2022/01/09 12:49:12;;;;;;;10.90;3.00;;;6.30;99.90;;;4.71;99.87;99762.38;2568164;30;138261;-37
2022/01/09 12:51:47;;;;;;;8.95;2.88;;;6.40;99.90;;;4.73;100.00;99768.41;2567978;30;138312;-38
2022/01/09 12:54:15;;;;;;;11.00;2.60;;;6.40;99.90;;;4.79;98.19;99768.66;2567722;30;137625;-36
2022/01/09 12:56:43;;;;;;;;;;;6.40;99.90;;;4.84;98.24;99771.59;2568810;30;138473;-38
2022/01/09 12:59:13;;;;;;;7.72;2.80;;;6.50;99.90;;;4.88;97.05;99768.25;2568089;30;138153;-38
2022/01/09 13:01:48;;;;;;;12.43;2.90;;;6.50;99.90;;;5.06;97.22;99774.19;2566203;30;137628;-38
2022/01/09 13:04:20;;;;;;;10.45;2.63;;;6.60;99.90;;;5.20;96.80;99775.88;2568098;30;138863;-37
2022/01/09 13:06:52;;;;;;;11.77;2.92;;;6.70;99.90;;;5.28;96.58;99767.59;2568572;30;137559;-38
2022/01/09 13:09:24;;;;;;;11.80;4.22;;;6.80;99.90;;;5.32;95.57;99770.72;2568174;30;138873;-38
2022/01/09 13:12:04;;;;;;;8.70;3.30;;;6.90;99.90;;;5.32;95.69;99768.88;2567137;30;137504;-37
2022/01/09 13:14:45;;;;;;;10.20;2.70;;;6.90;99.90;;;5.21;93.83;99777.56;2569245;30;138451;-37
2022/01/09 13:17:16;;;;;;;11.60;3.13;;;6.90;99.90;;;5.15;93.84;99776.47;2568667;30;137393;-38
2022/01/09 13:20:00;;;;;;;8.50;2.13;;;6.90;99.90;;;5.03;91.31;99787.03;2567062;30;138600;-38
2022/01/09 13:22:30;;;;;;;9.73;2.28;;;6.70;99.90;;;5.04;93.39;99785.19;2567633;30;136988;-38
2022/01/09 13:25:07;;;;;;;11.30;2.90;;;6.70;99.90;;;5.02;93.32;99784.56;2567862;30;138973;-38
2022/01/09 13:27:35;;;;;;;9.45;3.30;;;6.70;99.90;;;5.03;95.44;99791.63;2568245;30;137903;-38
2022/01/09 13:30:04;;;;;;;6.75;2.78;;;6.70;99.90;;;5.03;94.59;99792.44;2568261;30;139203;-38
2022/01/09 13:32:32;;;;;;;7.72;3.42;;;6.70;99.90;;;5.04;94.91;99788.75;2567028;30;137208;-38
2022/01/09 13:35:00;;;;;;;8.43;2.78;;;6.70;99.90;;;5.08;94.34;99789.16;2567118;30;138098;-38
2022/01/09 13:37:28;;;;;;;9.38;3.83;;;6.70;99.90;;;5.01;94.43;99789.13;2568194;30;137693;-38
2022/01/09 13:39:59;;;;;;;8.90;2.90;;;6.70;99.90;;;4.99;94.48;99795.78;2566449;30;136961;-38
2022/01/09 13:42:30;;;;;;;8.45;3.10;;;6.70;99.90;;;4.95;94.43;99799.94;2567453;30;137449;-38
2022/01/09 13:45:12;;;;;;;9.25;3.03;;;6.60;99.90;;;4.86;94.97;99800.06;2567971;30;138065;-38
2022/01/09 13:47:56;;;;;;;6.13;2.30;;;6.60;99.90;;;4.80;94.05;99803.56;2567048;30;137847;-38
2022/01/09 13:50:31;;;;;;;6.30;2.58;;;6.50;99.90;;;4.75;95.14;99814.97;2568290;30;138455;-37
2022/01/09 13:53:11;;;;;;;7.72;2.17;;;6.50;99.90;;;4.76;94.17;99818.53;2568393;30;137529;-38
2022/01/09 13:55:40;;;;;;;8.45;2.40;;;6.40;99.90;;;4.81;95.41;99820.66;2567577;30;137566;-37
2022/01/09 13:58:16;;;;;;;9.70;2.72;;;6.50;99.90;;;4.84;95.29;99817.53;2567465;30;137351;-37
2022/01/09 14:00:45;;;;;;;8.10;2.35;;;6.50;99.90;;;4.86;95.83;99824.41;2567777;30;138009;-37
2022/01/09 14:03:28;;;;;;;10.75;2.50;;;6.50;99.90;;;4.86;94.81;99819.00;2567557;30;138215;-37
2022/01/09 14:05:56;;;;;;;8.38;2.80;;;6.50;99.90;;;4.85;94.73;99825.44;2566712;30;137841;-38
2022/01/09 14:08:34;;;;;;;;;;;6.50;99.90;;;4.79;94.55;99828.94;2568657;30;138433;-38
2022/01/09 14:11:07;;;;;;;5.60;2.00;;;6.50;99.90;;;4.71;94.71;99832.63;2567917;30;137322;-37
2022/01/09 14:13:40;;;;;;;8.10;2.30;;;6.40;99.90;;;4.67;94.88;99836.75;2568583;30;137589;-37
2022/01/09 14:16:13;;;;;;;5.60;2.15;;;6.40;99.90;;;4.59;95.02;99839.63;2568396;30;138120;-37
2022/01/09 14:18:41;;;;;;;4.28;2.05;;;6.30;99.90;;;4.60;95.92;99852.09;2566417;30;137527;-38
2022/01/09 14:21:14;;;;;;;5.88;1.73;;;6.30;99.90;;;4.59;96.03;99851.25;2567763;30;138880;-38
2022/01/09 14:23:47;;;;;;;5.45;2.10;;;6.30;99.90;;;4.59;95.85;99851.25;2567817;30;136636;-38
2022/01/09 14:26:17;;;;;;;5.63;2.17;;;6.20;99.90;;;4.64;97.08;99853.38;2567784;30;139049;-38
2022/01/09 14:28:50;;;;;;;7.65;2.20;;;6.30;99.90;;;4.75;96.58;99860.09;2568194;30;137283;-38
2022/01/09 14:31:20;;;;;;;8.60;3.63;;;6.30;99.90;;;4.80;96.36;99859.50;2567669;30;138368;-38
2022/01/09 14:33:51;;;;;;;12.18;5.95;;;6.40;99.90;;;4.92;97.92;99863.31;2568483;30;137130;-38
2022/01/09 14:36:27;;;;;;;44.85;23.08;;;6.50;99.90;;;4.96;96.69;99867.28;2567158;30;137230;-38
2022/01/09 14:38:58;;;;;;;20.48;13.05;;;6.60;99.90;;;4.99;96.95;99864.19;2568547;30;137707;-38
2022/01/09 14:41:35;;;;;;;15.00;7.47;;;6.60;99.90;;;5.07;96.78;99865.06;2568222;30;138624;-38
2022/01/09 14:44:06;;;;;;;9.32;4.30;;;6.60;99.90;;;5.03;96.72;99865.44;2568040;30;137569;-38
2022/01/09 14:46:37;;;;;;;22.40;12.35;;;6.70;99.90;;;5.04;97.99;99869.84;2566198;30;138225;-38
2022/01/09 14:49:05;;;;;;;11.95;4.03;;;6.70;99.90;;;5.01;96.02;99872.94;2568055;30;137527;-38
2022/01/09 14:51:33;;;;;;;11.77;3.83;;;6.70;99.90;;;4.98;96.37;99881.44;2567607;30;139002;-38
2022/01/09 14:54:01;;;;;;;7.57;3.20;;;6.60;99.90;;;4.93;96.68;99885.78;2567321;30;137497;-38
2022/01/09 14:56:28;;;;;;;8.73;2.85;;;6.60;99.90;;;4.94;97.60;99884.75;2568350;30;138544;-38
2022/01/09 14:58:56;;;;;;;6.93;2.85;;;6.60;99.90;;;4.82;98.38;99892.59;2567822;30;136925;-37
2022/01/09 15:01:25;;;;;;;;;;;6.60;99.90;;;4.74;98.82;99890.84;2568198;30;137370;-38
2022/01/09 15:03:55;;;;;;;7.35;3.17;;;6.40;99.90;;;4.69;98.99;99902.25;2568927;30;136940;-38
2022/01/09 15:06:24;;;;;;;8.80;3.00;;;6.40;99.90;;;4.58;99.40;99900.09;2565921;30;139523;-38
2022/01/09 15:08:52;;;;;;;6.40;2.90;;;6.30;99.90;;;4.52;100.00;99909.81;2565735;30;136590;-38
2022/01/09 15:11:20;;;;;;;;;;;6.20;99.90;;;4.47;100.00;99912.25;2567112;30;138184;-38
2022/01/09 15:13:47;;;;;;;8.57;2.72;;;6.20;99.90;;;4.45;100.00;99912.44;2567269;30;137049;-38
2022/01/09 15:16:15;;;;;;;;;;;6.20;99.90;;;4.44;100.00;99918.88;2567507;30;137877;-37
2022/01/09 15:18:43;;;;;;;6.90;3.00;;;6.20;99.90;;;4.39;100.00;99932.13;2567679;30;137237;-38
2022/01/09 15:21:12;;;;;;;8.13;2.80;;;6.10;99.90;;;4.37;100.00;99928.78;2566513;30;138162;-38
2022/01/09 15:23:44;;;;;;;9.57;3.65;;;6.00;99.90;;;4.25;100.00;99928.47;2566659;30;136915;-38
2022/01/09 15:26:14;;;;;;;11.27;3.55;;;6.00;99.90;;;4.24;100.00;99934.06;2568275;30;138465;-38
2022/01/09 15:28:44;;;;;;;10.27;3.78;;;6.00;99.90;;;4.18;100.00;99936.50;2568407;30;137648;-38
2022/01/09 15:31:14;;;;;;;9.10;3.35;;;5.90;99.90;;;4.12;100.00;99937.28;2567223;30;139037;-38
2022/01/09 15:33:42;;;;;;;12.60;3.42;;;5.90;99.90;;;4.01;100.00;99943.19;2568113;30;138007;-38
2022/01/09 15:36:11;;;;;;;8.32;3.67;;;5.80;99.90;;;3.89;100.00;99946.38;2566072;30;139091;-38
2022/01/09 15:38:38;;;;;;;6.68;3.40;;;5.70;99.90;;;3.85;100.00;99955.06;2567261;30;137014;-38
2022/01/09 15:41:06;;;;;;;8.85;3.35;;;5.60;99.90;;;3.77;100.00;99952.44;2565777;30;138990;-38
2022/01/09 15:43:34;;;;;;;;;;;5.50;99.90;;;3.69;100.00;99956.09;2569129;30;137504;-38
2022/01/09 15:46:02;;;;;;;7.82;2.88;;;5.50;99.90;;;3.64;100.00;99962.06;2568357;30;137082;-38
2022/01/09 15:48:29;;;;;;;8.18;2.70;;;5.40;99.90;;;3.57;100.00;99967.38;2569578;30;138215;-38
2022/01/09 15:50:57;;;;;;;11.43;3.15;;;5.40;99.90;;;3.51;100.00;99962.72;2568415;30;138285;-38
2022/01/09 15:53:24;;;;;;;11.00;3.13;;;5.30;99.90;;;3.43;100.00;99973.59;2567002;30;137516;-38
2022/01/09 15:55:52;;;;;;;8.38;2.45;;;5.20;99.90;;;3.37;100.00;99980.59;2569356;30;138205;-38
2022/01/09 15:58:20;;;;;;;10.73;3.13;;;5.20;99.90;;;3.32;100.00;99980.31;2567120;30;138456;-38
2022/01/09 16:00:54;;;;;;;;;;;5.10;99.90;;;3.31;100.00;99984.84;2568374;30;138450;-38
2022/01/09 16:03:22;;;;;;;7.43;3.03;;;5.10;99.90;;;3.24;100.00;99967.75;2568449;30;137223;-38
2022/01/09 16:05:50;;;;;;;11.82;2.80;;;5.10;99.90;;;3.33;100.00;99982.00;2565989;30;139620;-38
2022/01/09 16:08:19;;;;;;;8.85;2.80;;;5.00;99.90;;;3.37;100.00;99994.06;2568017;30;137442;-38
2022/01/09 16:10:47;;;;;;;8.55;2.88;;;5.10;99.90;;;3.41;100.00;99989.97;2568149;30;139073;-38
2022/01/09 16:13:16;;;;;;;9.63;2.90;;;5.10;99.90;;;3.44;100.00;99994.13;2568219;30;137619;-38
2022/01/09 16:15:46;;;;;;;10.88;3.28;;;5.20;99.90;;;3.58;100.00;99993.31;2568711;30;138233;-38
2022/01/09 16:18:13;;;;;;;11.88;3.03;;;5.20;99.90;;;3.54;100.00;99996.56;2567593;30;137590;-37
2022/01/09 16:20:41;;;;;;;16.33;3.58;;;5.20;99.90;;;3.54;100.00;99997.41;2567106;30;139114;-38
2022/01/09 16:23:09;;;;;;;11.30;3.25;;;5.30;99.90;;;3.59;100.00;100003.09;2568473;30;136797;-38
2022/01/09 16:25:37;;;;;;;10.00;2.97;;;5.30;99.90;;;3.57;100.00;99999.75;2568442;30;138207;-38
2022/01/09 16:28:04;;;;;;;11.32;3.63;;;5.30;99.90;;;3.59;100.00;100008.47;2567327;30;136776;-37
2022/01/09 16:30:32;;;;;;;8.43;3.58;;;5.30;99.90;;;3.56;100.00;100011.56;2567146;30;139106;-38